Swanton, Vermont
Current Conditions -  °F | °C
As of 11:15 PM on Monday 22 Dec 2014 (Local Time) from KFSO Reporting Station
Overcast Overcast  
Wind Chill: 21°   Ceiling: 4900
Heat Index: 21°   Visibility: 7mi
Dew Point: 19°   Wind: 0mph
Humidity: 89%   Direction: NA
Pressure: 30.27"   Gusts: NA
Location:  44.92°N, 73.12°W
Report Text: KFSO 230415Z AUTO 00000KT 7SM OVC049 M06/M07 A3027 RMK AO2 T10601075
Loading
Personal Weather Stations






























Interactive Weather Map New forecast layout! Learn more

10-Day Weather Forecast

Advertisements
Track Severe Weather on mobile